Time;durP1;ratioP1;P1;durP2;ratioP2;P2;SDS_P1;SDS_P2;PMS_P1;PMS_P2;Temp;Humidity;BMP_temperature;BMP_pressure;BME280_temperature;BME280_humidity;BME280_pressure;Samples;Min_cycle;Max_cycle;Signal;HPM_P1;HPM_P2
2021/12/23 00:00:22;;;;;;;23.27;11.98;;;;;;;-1.25;79.53;101693.09;4995078;28;20121;-60
2021/12/23 00:02:47;;;;;;;21.08;12.55;;;;;;;-1.27;79.39;101709.44;4999191;28;20037;-61
2021/12/23 00:05:12;;;;;;;23.40;13.40;;;;;;;-1.24;79.49;101700.03;4999825;28;20042;-62
2021/12/23 00:07:38;;;;;;;23.85;12.40;;;;;;;-1.25;79.26;101701.72;4987083;28;20031;-63
2021/12/23 00:10:06;;;;;;;20.42;12.45;;;;;;;-1.27;78.94;101712.03;4986697;28;20031;-61
2021/12/23 00:12:36;;;;;;;18.25;10.85;;;;;;;-1.28;79.05;101715.47;5000998;28;20481;-61
2021/12/23 00:15:04;;;;;;;24.35;11.02;;;;;;;-1.35;79.12;101704.88;4986941;28;20034;-62
2021/12/23 00:25:23;;;;;;;22.33;13.32;;;;;;;-1.39;79.32;101706.47;4987084;28;20496;-62
2021/12/23 00:27:48;;;;;;;20.42;12.60;;;;;;;-1.44;79.86;101700.31;4986792;28;20022;-61
2021/12/23 00:30:14;;;;;;;23.27;13.90;;;;;;;-1.51;79.99;101688.03;4986726;28;20108;-61
2021/12/23 00:32:39;;;;;;;24.63;11.07;;;;;;;-1.50;80.17;101674.28;4987791;28;20026;-62
2021/12/23 00:35:05;;;;;;;22.63;11.77;;;;;;;-1.53;80.28;101681.09;5023984;28;20021;-62
2021/12/23 00:37:43;;;;;;;17.67;10.82;;;;;;;-1.55;80.68;101685.38;5008793;28;20025;-61
2021/12/23 00:40:10;;;;;;;22.65;12.73;;;;;;;-1.52;80.38;101681.97;5025932;28;20034;-62
2021/12/23 00:42:35;;;;;;;20.35;11.90;;;;;;;-1.51;80.43;101675.13;5026845;28;20364;-61
2021/12/23 00:45:03;;;;;;;22.35;11.90;;;;;;;-1.56;80.62;101655.16;5025259;28;20021;-61
2021/12/23 00:47:28;;;;;;;18.77;11.25;;;;;;;-1.51;80.56;101663.03;5026492;28;20021;-61
2021/12/23 00:49:53;;;;;;;22.10;12.23;;;;;;;-1.51;80.60;101670.81;5025055;28;20028;-61
2021/12/23 00:52:26;;;;;;;21.65;13.02;;;;;;;-1.54;80.69;101670.72;5026647;28;20029;-62
2021/12/23 00:54:52;;;;;;;26.35;13.57;;;;;;;-1.54;80.90;101655.19;5007782;28;20429;-62
2021/12/23 00:57:20;;;;;;;18.38;11.48;;;;;;;-1.53;80.73;101637.16;4989343;28;20522;-62
2021/12/23 00:59:46;;;;;;;24.52;14.07;;;;;;;-1.55;80.94;101623.31;5005990;28;20030;-60
2021/12/23 01:02:12;;;;;;;19.63;11.15;;;;;;;-1.58;81.12;101618.06;5007374;28;20037;-62
2021/12/23 01:04:38;;;;;;;19.38;11.63;;;;;;;-1.59;81.02;101618.91;5004025;28;20472;-61
2021/12/23 01:07:03;;;;;;;18.83;10.60;;;;;;;-1.61;81.06;101617.97;5006493;28;20022;-61
2021/12/23 01:09:29;;;;;;;21.50;12.55;;;;;;;-1.67;80.78;101613.50;5004176;28;20030;-61
2021/12/23 01:11:55;;;;;;;23.92;12.18;;;;;;;-1.72;81.64;101619.38;5005603;28;20121;-62
2021/12/23 01:19:25;;;;;;;25.17;13.75;;;;;;;-1.89;81.91;101606.81;5005861;28;20034;-61
2021/12/23 01:21:51;;;;;;;26.45;14.27;;;;;;;-1.90;81.71;101610.22;5006915;28;20018;-61
2021/12/23 01:24:16;;;;;;;25.05;15.00;;;;;;;-1.94;81.90;101618.72;5005142;28;20026;-62
2021/12/23 01:26:42;;;;;;;28.65;14.15;;;;;;;-2.01;82.12;101606.44;5006678;28;20014;-61
2021/12/23 01:29:07;;;;;;;22.52;13.40;;;;;;;-1.98;81.79;101606.53;5005578;28;20515;-61
2021/12/23 01:31:34;;;;;;;21.27;12.55;;;;;;;-2.04;82.05;101605.50;5006789;28;20061;-62
2021/12/23 01:33:59;;;;;;;23.45;13.05;;;;;;;-2.11;82.25;101608.72;5008375;28;20109;-61
2021/12/23 01:36:25;;;;;;;19.73;11.52;;;;;;;-2.18;82.35;101609.38;5026533;28;20441;-62
2021/12/23 01:38:51;;;;;;;19.08;10.05;;;;;;;-2.27;82.51;101604.81;5024773;28;20072;-62
2021/12/23 01:41:17;;;;;;;15.82;10.52;;;;;;;-2.31;82.89;101598.69;5026179;28;20025;-62
2021/12/23 01:43:42;;;;;;;24.77;13.18;;;;;;;-2.34;83.02;101597.69;5024528;28;20026;-62
2021/12/23 01:46:08;;;;;;;21.67;13.68;;;;;;;-2.41;83.39;101596.59;5005569;28;20021;-62
2021/12/23 01:48:33;;;;;;;25.95;13.10;;;;;;;-2.46;83.05;101603.34;5005280;28;20577;-61
2021/12/23 01:50:59;;;;;;;30.33;15.32;;;;;;;-2.43;83.28;101590.53;4988892;28;20068;-60
2021/12/23 01:53:25;;;;;;;24.80;13.57;;;;;;;-2.51;83.50;101592.88;5005739;28;20045;-63
2021/12/23 01:55:51;;;;;;;25.35;13.93;;;;;;;-2.52;83.86;101597.97;5006645;28;20113;-61
2021/12/23 01:58:18;;;;;;;26.08;13.98;;;;;;;-2.48;83.78;101600.72;5009381;28;20037;-61
2021/12/23 02:00:46;;;;;;;30.33;14.80;;;;;;;-2.54;83.65;101585.03;5009470;28;20079;-62
2021/12/23 02:03:13;;;;;;;29.17;16.40;;;;;;;-2.50;83.78;101586.88;5010270;28;20358;-63
2021/12/23 02:05:39;;;;;;;31.67;15.43;;;;;;;-2.47;83.85;101580.94;5015157;28;20045;-63
2021/12/23 02:08:04;;;;;;;29.00;15.13;;;;;;;-2.51;83.76;101573.91;5033964;22;20187;-61
2021/12/23 02:10:30;;;;;;;28.88;15.43;;;;;;;-2.54;83.83;101548.88;5008663;28;20087;-60
2021/12/23 02:12:56;;;;;;;27.50;15.52;;;;;;;-2.57;83.79;101539.34;4998334;28;20030;-62
2021/12/23 02:15:21;;;;;;;33.45;16.48;;;;;;;-2.51;83.72;101532.63;4990339;28;20027;-62
2021/12/23 02:17:48;;;;;;;29.75;16.30;;;;;;;-2.48;83.70;101522.38;4989626;28;20038;-63
2021/12/23 02:20:15;;;;;;;31.55;16.60;;;;;;;-2.44;83.43;101514.78;4995369;28;20026;-63
2021/12/23 02:22:42;;;;;;;26.70;15.05;;;;;;;-2.43;83.33;101518.25;5009975;28;20368;-63
2021/12/23 02:25:09;;;;;;;39.35;17.88;;;;;;;-2.42;83.11;101522.59;5007988;28;20018;-61
2021/12/23 02:27:35;;;;;;;32.22;18.77;;;;;;;-2.42;83.02;101528.63;5008966;28;20069;-63
2021/12/23 02:30:03;;;;;;;31.48;17.60;;;;;;;-2.36;82.87;101527.94;5009511;28;20140;-61
2021/12/23 02:32:28;;;;;;;33.22;18.50;;;;;;;-2.29;82.56;101508.34;5009220;28;20080;-61
2021/12/23 02:34:53;;;;;;;37.78;18.10;;;;;;;-2.28;82.33;101521.28;4998809;28;20058;-62
2021/12/23 02:37:19;;;;;;;36.10;19.35;;;;;;;-2.27;82.54;101522.19;5003982;28;20115;-62
2021/12/23 02:39:44;;;;;;;45.05;20.95;;;;;;;-2.22;82.54;101523.22;5007424;28;20030;-59
2021/12/23 02:42:11;;;;;;;39.95;19.08;;;;;;;-2.18;82.43;101508.66;4991464;28;20076;-60
2021/12/23 02:44:36;;;;;;;37.88;19.35;;;;;;;-2.19;82.45;101514.66;5005744;28;20587;-60
2021/12/23 02:47:01;;;;;;;38.20;20.15;;;;;;;-2.16;82.53;101501.84;4988786;28;20052;-62
2021/12/23 02:49:27;;;;;;;37.92;20.63;;;;;;;-2.10;82.37;101509.78;4988282;28;20032;-62
2021/12/23 02:51:52;;;;;;;41.60;21.95;;;;;;;-1.99;81.79;101504.06;4989090;28;20030;-63
2021/12/23 02:54:18;;;;;;;35.20;20.50;;;;;;;-1.89;81.52;101500.00;4987979;28;20023;-62
2021/12/23 02:56:43;;;;;;;42.67;21.73;;;;;;;-1.88;81.49;101489.72;4989697;28;20134;-63
2021/12/23 02:59:09;;;;;;;39.17;20.85;;;;;;;-1.82;81.28;101487.31;4984292;28;20026;-62
2021/12/23 03:01:34;;;;;;;41.33;20.27;;;;;;;-1.79;81.28;101491.69;4992008;28;20097;-62
2021/12/23 03:04:00;;;;;;;34.50;19.90;;;;;;;-1.76;81.10;101483.13;4989216;28;20113;-63
2021/12/23 03:06:25;;;;;;;45.33;22.75;;;;;;;-1.72;80.89;101469.50;4989300;28;20031;-60
2021/12/23 03:08:54;;;;;;;45.90;23.38;;;;;;;-1.76;81.29;101465.06;4987602;28;20054;-62
2021/12/23 03:11:22;;;;;;;43.08;23.40;;;;;;;-1.69;80.99;101475.59;4988500;28;20022;-63
2021/12/23 03:13:49;;;;;;;55.30;26.05;;;;;;;-1.65;81.41;101472.25;4988358;28;20057;-61
2021/12/23 03:16:19;;;;;;;54.17;27.17;;;;;;;-1.61;81.16;101472.34;4987831;28;20050;-60
2021/12/23 03:18:44;;;;;;;58.10;28.10;;;;;;;-1.63;81.35;101461.97;4988613;28;20029;-62
2021/12/23 03:21:10;;;;;;;58.92;28.27;;;;;;;-1.61;81.43;101457.72;4987808;28;20108;-62
2021/12/23 03:23:36;;;;;;;59.47;29.55;;;;;;;-1.62;81.62;101452.50;4989113;28;20066;-62
2021/12/23 03:26:04;;;;;;;57.50;30.25;;;;;;;-1.61;81.90;101444.81;4987639;28;20128;-62
2021/12/23 03:28:29;;;;;;;54.30;28.42;;;;;;;-1.59;81.73;101425.06;4988216;28;20030;-61
2021/12/23 03:30:55;;;;;;;54.10;28.13;;;;;;;-1.67;82.28;101411.91;4993090;28;20088;-61
2021/12/23 03:33:21;;;;;;;56.83;26.65;;;;;;;-1.64;82.21;101413.69;5002898;28;20058;-62
2021/12/23 03:35:47;;;;;;;67.07;32.38;;;;;;;-1.67;82.34;101421.38;4986435;28;20507;-60
2021/12/23 03:38:12;;;;;;;63.67;29.77;;;;;;;-1.66;82.34;101424.00;4990949;28;20033;-61
2021/12/23 03:40:38;;;;;;;58.70;29.08;;;;;;;-1.64;82.25;101434.38;4998567;28;20085;-63
2021/12/23 03:43:04;;;;;;;58.20;26.95;;;;;;;-1.63;82.13;101422.34;4987581;28;20097;-63
2021/12/23 03:45:30;;;;;;;59.38;30.40;;;;;;;-1.62;82.30;101424.97;4988144;28;20053;-62
2021/12/23 03:47:55;;;;;;;63.03;30.50;;;;;;;-1.60;82.25;101430.19;4987006;28;20057;-62
2021/12/23 03:50:22;;;;;;;53.90;26.17;;;;;;;-1.58;82.08;101446.59;4983864;28;20034;-62
2021/12/23 03:52:48;;;;;;;56.75;28.75;;;;;;;-1.55;81.81;101447.56;4972261;28;20481;-65
2021/12/23 03:55:15;;;;;;;62.53;28.83;;;;;;;-1.52;81.92;101444.16;4977065;28;20030;-62
2021/12/23 03:57:41;;;;;;;55.50;26.40;;;;;;;-1.54;81.89;101433.78;4988156;28;20026;-62
2021/12/23 04:00:11;;;;;;;70.95;32.33;;;;;;;-1.55;82.01;101438.91;4986581;28;20396;-61
2021/12/23 04:02:36;;;;;;;70.38;32.50;;;;;;;-1.62;82.34;101455.97;4976883;28;20106;-62
2021/12/23 04:05:03;;;;;;;66.22;29.73;;;;;;;-1.60;82.40;101441.38;4986666;28;20109;-62
2021/12/23 04:07:28;;;;;;;65.80;31.77;;;;;;;-1.49;81.86;101444.25;4987654;28;20060;-61
2021/12/23 04:09:54;;;;;;;60.50;27.58;;;;;;;-1.45;81.40;101458.09;4985802;28;20125;-63
2021/12/23 04:12:19;;;;;;;58.70;27.17;;;;;;;-1.48;81.96;101452.88;4987865;28;20034;-61
2021/12/23 04:14:44;;;;;;;68.50;31.30;;;;;;;-1.49;81.64;101457.16;4986246;28;20045;-61
2021/12/23 04:17:10;;;;;;;61.05;26.55;;;;;;;-1.46;81.88;101451.19;4988458;28;20074;-62
2021/12/23 04:19:35;;;;;;;65.25;28.95;;;;;;;-1.51;81.80;101442.47;4986015;28;20036;-63
2021/12/23 04:22:00;;;;;;;64.07;28.33;;;;;;;-1.52;82.32;101444.16;5005904;28;20048;-60
2021/12/23 04:24:26;;;;;;;64.85;28.15;;;;;;;-1.55;82.21;101444.97;5005776;28;20029;-63
2021/12/23 04:26:51;;;;;;;64.40;31.70;;;;;;;-1.58;82.49;101438.81;5005516;28;20030;-60
2021/12/23 04:29:17;;;;;;;66.85;29.55;;;;;;;-1.58;82.69;101426.78;5006372;28;20037;-62
2021/12/23 04:31:42;;;;;;;65.63;28.08;;;;;;;-1.51;82.62;101427.81;4990635;28;20031;-61
2021/12/23 04:34:08;;;;;;;72.32;30.33;;;;;;;-1.44;82.37;101415.94;4976555;28;20039;-61
2021/12/23 04:36:33;;;;;;;71.40;30.98;;;;;;;-1.49;82.50;101433.91;4986393;28;20026;-63
2021/12/23 04:38:59;;;;;;;65.75;30.25;;;;;;;-1.46;82.64;101430.50;4986294;28;20038;-62
2021/12/23 04:41:24;;;;;;;79.47;32.97;;;;;;;-1.51;82.87;101432.13;4985488;28;20030;-62
2021/12/23 04:43:50;;;;;;;66.95;29.10;;;;;;;-1.48;82.66;101420.13;4986152;28;20053;-60
2021/12/23 04:46:15;;;;;;;76.18;30.20;;;;;;;-1.51;82.80;101401.97;4985687;28;20381;-62
2021/12/23 04:48:40;;;;;;;61.00;26.42;;;;;;;-1.46;82.70;101396.91;4970209;28;20046;-63
2021/12/23 04:51:06;;;;;;;61.92;27.05;;;;;;;-1.45;82.83;101404.72;4985942;28;20374;-63
2021/12/23 04:53:31;;;;;;;72.25;29.17;;;;;;;-1.47;82.88;101402.91;4986835;28;20104;-63
2021/12/23 04:55:57;;;;;;;62.90;28.58;;;;;;;-1.51;82.99;101391.63;4986527;28;20026;-62
2021/12/23 04:58:22;;;;;;;64.10;28.02;;;;;;;-1.49;82.96;101378.72;4987079;28;20843;-63
2021/12/23 05:00:49;;;;;;;71.38;29.75;;;;;;;-1.50;83.09;101382.16;4984681;28;20046;-61
2021/12/23 05:03:16;;;;;;;71.95;29.70;;;;;;;-1.61;83.38;101395.69;4987050;28;20026;-62
2021/12/23 05:05:42;;;;;;;75.43;30.75;;;;;;;-1.60;83.58;101391.41;4982327;28;20489;-62
2021/12/23 05:08:07;;;;;;;65.55;26.80;;;;;;;-1.66;83.82;101386.94;4985308;28;20132;-60
2021/12/23 05:10:32;;;;;;;73.50;29.77;;;;;;;-1.62;84.02;101378.44;4986944;28;20031;-63
2021/12/23 05:12:58;;;;;;;67.80;28.20;;;;;;;-1.56;83.78;101370.81;4985981;28;20117;-63
2021/12/23 05:15:24;;;;;;;67.97;30.30;;;;;;;-1.51;83.58;101362.34;4987107;28;20113;-62
2021/12/23 05:17:49;;;;;;;68.95;28.42;;;;;;;-1.44;83.54;101356.47;4989291;28;20113;-61
2021/12/23 05:20:17;;;;;;;75.55;30.95;;;;;;;-1.39;83.42;101352.28;4988658;28;20101;-63
2021/12/23 05:22:42;;;;;;;64.90;28.88;;;;;;;-1.39;83.51;101349.69;4987477;28;20496;-62
2021/12/23 05:25:09;;;;;;;67.72;25.77;;;;;;;-1.32;83.36;101346.41;4985855;28;20035;-61
2021/12/23 05:27:34;;;;;;;57.25;24.25;;;;;;;-1.33;83.52;101343.81;4987175;28;20030;-61
2021/12/23 05:30:01;;;;;;;73.18;30.60;;;;;;;-1.35;83.30;101346.34;4986967;28;20088;-62
2021/12/23 05:32:27;;;;;;;73.32;28.83;;;;;;;-1.27;83.04;101337.06;4990713;28;20037;-61
2021/12/23 05:34:52;;;;;;;72.65;30.95;;;;;;;-1.22;82.78;101331.09;4989291;28;20113;-61
2021/12/23 05:37:17;;;;;;;73.18;30.05;;;;;;;-1.19;82.82;101331.19;4990215;28;20072;-62
2021/12/23 05:39:43;;;;;;;69.57;30.15;;;;;;;-1.18;82.83;101317.41;4990327;28;20034;-61
2021/12/23 05:42:08;;;;;;;68.60;29.75;;;;;;;-1.15;82.54;101323.53;4990614;28;20076;-61
2021/12/23 05:44:33;;;;;;;72.38;30.58;;;;;;;-1.12;82.52;101327.03;4987286;28;20038;-62
2021/12/23 05:46:59;;;;;;;67.00;28.08;;;;;;;-1.10;82.49;101313.28;4990251;28;20018;-62
2021/12/23 05:49:24;;;;;;;61.88;27.00;;;;;;;-1.11;82.58;101308.97;4990456;28;20030;-62
2021/12/23 05:51:49;;;;;;;69.28;28.73;;;;;;;-1.16;82.85;101310.56;4990205;28;20038;-62
2021/12/23 05:54:15;;;;;;;68.30;29.05;;;;;;;-1.20;83.12;101313.94;4990024;28;20034;-61
2021/12/23 05:56:40;;;;;;;60.63;25.52;;;;;;;-1.23;83.23;101313.84;4991118;28;20026;-62
2021/12/23 05:59:06;;;;;;;69.40;28.75;;;;;;;-1.20;83.06;101324.28;4990014;28;20122;-62
2021/12/23 06:01:31;;;;;;;68.72;28.77;;;;;;;-1.17;83.13;101314.00;4989661;28;20065;-60
2021/12/23 06:03:57;;;;;;;67.20;29.90;;;;;;;-1.20;82.82;101316.50;4989892;28;20042;-61
2021/12/23 06:06:23;;;;;;;64.78;28.65;;;;;;;-1.20;83.22;101308.75;4990382;28;20077;-62
2021/12/23 06:08:48;;;;;;;64.80;26.80;;;;;;;-1.17;83.28;101309.69;4989072;28;20046;-61
2021/12/23 06:11:13;;;;;;;57.45;26.08;;;;;;;-1.12;82.74;101312.38;4993878;28;20152;-61
2021/12/23 06:13:39;;;;;;;62.53;28.67;;;;;;;-1.15;83.00;101304.53;4972451;28;20018;-62
2021/12/23 06:16:04;;;;;;;58.15;25.90;;;;;;;-1.16;83.26;101302.81;4989927;28;20036;-64
2021/12/23 06:18:29;;;;;;;61.75;27.67;;;;;;;-1.14;83.22;101298.53;4985528;28;20420;-60
2021/12/23 06:20:55;;;;;;;63.03;27.70;;;;;;;-1.08;83.20;101292.63;4969866;28;20089;-62
2021/12/23 06:23:20;;;;;;;80.03;31.10;;;;;;;-1.14;83.27;101298.53;4977388;28;20053;-62
2021/12/23 06:25:46;;;;;;;60.75;25.35;;;;;;;-1.15;83.61;101300.25;4982917;28;20054;-62
2021/12/23 06:28:11;;;;;;;74.70;31.80;;;;;;;-1.12;83.45;101321.88;4969473;28;20019;-61
2021/12/23 06:30:37;;;;;;;52.90;23.58;;;;;;;-1.11;83.74;101321.91;4977516;28;20443;-60
2021/12/23 06:33:02;;;;;;;67.90;27.80;;;;;;;-1.09;83.63;101317.63;4989162;28;20026;-61
2021/12/23 06:35:30;;;;;;;72.53;32.15;;;;;;;-1.03;83.12;101304.81;4987506;28;20214;-62
2021/12/23 06:37:56;;;;;;;80.88;34.05;;;;;;;-1.05;83.24;101309.06;4987765;28;20030;-65
2021/12/23 06:40:22;;;;;;;74.18;31.23;;;;;;;-1.07;83.29;101294.38;4971680;28;20035;-68
2021/12/23 06:42:48;;;;;;;74.47;32.90;;;;;;;-1.11;83.57;101298.63;4986212;28;20092;-64
2021/12/23 06:45:14;;;;;;;74.03;32.80;;;;;;;-1.14;83.95;101293.38;4989272;28;20061;-63
2021/12/23 06:47:39;;;;;;;72.05;31.40;;;;;;;-1.14;84.11;101288.19;4970836;28;20088;-61
2021/12/23 06:50:06;;;;;;;74.95;32.55;;;;;;;-1.17;83.95;101288.13;4990157;28;20157;-62
2021/12/23 06:52:32;;;;;;;72.55;30.63;;;;;;;-1.13;83.96;101277.00;4988897;28;20392;-60
2021/12/23 06:54:58;;;;;;;71.60;30.38;;;;;;;-1.15;84.21;101271.81;4985709;28;20019;-61
2021/12/23 06:57:26;;;;;;;69.88;29.30;;;;;;;-1.16;84.26;101257.13;4990975;28;20155;-61
2021/12/23 06:59:51;;;;;;;69.85;29.38;;;;;;;-1.09;83.98;101254.69;4985678;28;20026;-60
2021/12/23 07:02:17;;;;;;;63.75;28.50;;;;;;;-1.04;83.73;101265.97;4988260;28;20030;-63
2021/12/23 07:04:44;;;;;;;73.90;32.50;;;;;;;-1.00;83.59;101272.09;4988900;28;20041;-62
2021/12/23 07:07:11;;;;;;;70.82;28.98;;;;;;;-1.01;83.66;101273.81;4987073;28;20027;-62
2021/12/23 07:09:37;;;;;;;76.53;32.40;;;;;;;-1.02;83.78;101269.50;4987554;28;20042;-63
2021/12/23 07:12:08;;;;;;;67.05;28.02;;;;;;;-1.00;83.85;101285.91;4986865;28;20528;-63
2021/12/23 07:14:35;;;;;;;73.82;31.58;;;;;;;-1.03;83.81;101296.16;4991844;28;20038;-66
2021/12/23 07:17:00;;;;;;;64.05;27.40;;;;;;;-1.03;84.09;101286.72;4953834;28;20026;-64
2021/12/23 07:19:26;;;;;;;75.22;32.00;;;;;;;-0.96;83.53;101292.03;4987824;28;20045;-63
2021/12/23 07:21:51;;;;;;;74.72;32.38;;;;;;;-0.99;83.82;101287.66;4987637;28;20121;-62
2021/12/23 07:24:16;;;;;;;66.90;28.42;;;;;;;-0.96;83.66;101282.53;4987822;28;20065;-65
2021/12/23 07:26:42;;;;;;;72.60;31.08;;;;;;;-0.94;83.48;101285.16;5006481;28;20121;-65
2021/12/23 07:29:07;;;;;;;65.43;27.95;;;;;;;-0.99;83.88;101287.66;5007094;28;20394;-65
2021/12/23 07:31:33;;;;;;;72.15;29.95;;;;;;;-0.98;84.14;101285.94;4996854;28;20030;-63
2021/12/23 07:33:58;;;;;;;71.88;29.42;;;;;;;-0.92;83.53;101286.06;4988017;28;20030;-62
2021/12/23 07:36:24;;;;;;;74.50;30.05;;;;;;;-0.82;83.18;101284.53;4986358;28;20090;-62
2021/12/23 07:38:50;;;;;;;77.82;30.98;;;;;;;-0.80;82.94;101281.16;4987516;28;20530;-60
2021/12/23 07:41:17;;;;;;;66.00;27.98;;;;;;;-0.77;82.91;101278.63;4971084;28;20030;-60
2021/12/23 07:43:55;;;;;;;76.75;31.55;;;;;;;-0.83;83.17;101268.16;4987681;28;20029;-62
2021/12/23 07:46:20;;;;;;;79.30;32.45;;;;;;;-0.91;83.63;101259.34;4987132;28;20050;-60
2021/12/23 07:48:45;;;;;;;68.07;27.05;;;;;;;-0.87;83.71;101248.22;4987413;28;20085;-61
2021/12/23 07:51:11;;;;;;;69.38;30.50;;;;;;;-0.87;83.51;101243.06;4987219;28;20101;-60
2021/12/23 07:53:36;;;;;;;76.82;29.30;;;;;;;-0.88;84.08;101238.69;4987068;28;20067;-60
2021/12/23 07:56:02;;;;;;;71.88;30.95;;;;;;;-0.85;83.94;101227.56;4986807;28;20010;-61
2021/12/23 07:58:27;;;;;;;74.30;29.08;;;;;;;-0.85;83.93;101228.41;4969969;28;20030;-61
2021/12/23 08:00:52;;;;;;;64.13;26.48;;;;;;;-0.85;83.94;101246.53;4987257;28;20026;-60
2021/12/23 08:03:18;;;;;;;61.08;25.95;;;;;;;-0.76;83.56;101253.59;5000066;28;20392;-62
2021/12/23 08:05:43;;;;;;;57.40;24.55;;;;;;;-0.71;83.17;101231.28;5007777;28;20030;-62
2021/12/23 08:08:08;;;;;;;70.38;29.83;;;;;;;-0.72;83.17;101231.25;5004356;28;20046;-62
2021/12/23 08:10:34;;;;;;;74.63;30.05;;;;;;;-0.74;82.93;101235.50;5005111;28;20033;-62
2021/12/23 08:13:01;;;;;;;63.25;26.33;;;;;;;-0.80;83.40;101238.88;4968046;28;20121;-62
2021/12/23 08:15:26;;;;;;;71.32;29.05;;;;;;;-0.77;83.43;101223.41;4985829;28;20097;-64
2021/12/23 08:17:52;;;;;;;63.83;28.70;;;;;;;-0.82;83.67;101217.25;4968890;28;20121;-65
2021/12/23 08:20:17;;;;;;;72.80;27.50;;;;;;;-0.79;83.75;101219.91;4986317;28;20124;-64
2021/12/23 08:22:43;;;;;;;61.42;26.95;;;;;;;-0.71;83.46;101231.28;4987082;28;20058;-64
2021/12/23 08:25:10;;;;;;;67.55;27.30;;;;;;;-0.67;83.03;101224.44;4968277;28;20065;-62
2021/12/23 08:27:35;;;;;;;74.40;29.10;;;;;;;-0.62;83.11;101212.47;4986914;28;20030;-62
2021/12/23 08:30:04;;;;;;;64.13;25.98;;;;;;;-0.63;83.14;101197.78;4983988;28;20030;-62
2021/12/23 08:32:29;;;;;;;65.20;26.48;;;;;;;-0.57;82.88;101192.69;4984273;28;20058;-64
2021/12/23 08:34:54;;;;;;;76.03;30.23;;;;;;;-0.58;82.91;101177.13;4966879;28;20121;-65
2021/12/23 08:37:20;;;;;;;65.00;27.08;;;;;;;-0.60;83.17;101182.28;4985898;28;20026;-65
2021/12/23 08:39:48;;;;;;;63.10;27.67;;;;;;;-0.59;83.06;101178.88;4983393;28;20425;-63
2021/12/23 08:42:13;;;;;;;73.15;28.38;;;;;;;-0.55;82.96;101180.66;4986553;28;20485;-65
2021/12/23 08:44:40;;;;;;;69.65;28.15;;;;;;;-0.57;83.11;101166.81;4984214;28;20046;-65
2021/12/23 08:47:06;;;;;;;56.33;24.67;;;;;;;-0.44;82.72;101164.44;4983871;28;20018;-64
2021/12/23 08:49:31;;;;;;;64.43;26.48;;;;;;;-0.42;82.44;101160.19;4986122;28;20393;-63
2021/12/23 08:51:56;;;;;;;68.82;27.55;;;;;;;-0.41;82.50;101165.38;4985957;28;20010;-64
2021/12/23 08:54:22;;;;;;;62.40;27.08;;;;;;;-0.43;82.63;101155.81;4985396;28;20018;-63
2021/12/23 08:56:47;;;;;;;56.90;23.40;;;;;;;-0.35;82.50;101136.13;4983695;28;20026;-64
2021/12/23 08:59:13;;;;;;;68.82;27.98;;;;;;;-0.39;82.51;101134.34;4986560;28;20556;-65
2021/12/23 09:01:42;;;;;;;68.90;28.05;;;;;;;-0.35;82.32;101141.28;4986380;28;20465;-63
2021/12/23 09:04:07;;;;;;;70.80;26.42;;;;;;;-0.28;82.18;101137.06;4984205;28;20026;-68
2021/12/23 09:06:33;;;;;;;65.80;26.75;;;;;;;-0.26;82.18;101138.88;4992254;28;20029;-66
2021/12/23 09:08:58;;;;;;;55.47;25.23;;;;;;;-0.26;82.11;101132.81;4989837;28;20058;-65
2021/12/23 09:11:24;;;;;;;63.55;27.90;;;;;;;-0.21;82.16;101138.91;4984950;28;20428;-64
2021/12/23 09:13:50;;;;;;;73.35;29.25;;;;;;;-0.19;82.35;101131.16;4991063;28;20527;-64
2021/12/23 09:16:15;;;;;;;54.85;25.17;;;;;;;-0.14;82.30;101130.41;4989832;28;20057;-63
2021/12/23 09:18:41;;;;;;;66.30;26.58;;;;;;;-0.10;81.78;101120.94;4990237;28;20030;-63
2021/12/23 09:21:06;;;;;;;68.03;28.40;;;;;;;-0.11;81.95;101116.63;4989614;28;20064;-64
2021/12/23 09:23:31;;;;;;;58.90;25.27;;;;;;;-0.09;82.04;101120.09;4986449;28;20146;-64
2021/12/23 09:25:57;;;;;;;65.88;28.05;;;;;;;-0.03;81.87;101127.09;4974593;28;20116;-65
2021/12/23 09:28:38;;;;;;;63.65;24.73;;;;;;;0.02;81.98;101119.38;4978469;28;20114;-64
2021/12/23 09:33:47;;;;;;;60.45;25.33;;;;;;;0.06;81.62;101116.00;4979721;28;20092;-64
2021/12/23 09:36:14;;;;;;;57.10;24.20;;;;;;;0.12;81.59;101110.91;4989246;28;20030;-65
2021/12/23 09:38:39;;;;;;;66.07;27.50;;;;;;;0.12;81.46;101110.91;4985733;28;20380;-65
2021/12/23 09:41:13;;;;;;;65.65;27.85;;;;;;;0.07;82.14;101099.59;4984797;28;20026;-64
2021/12/23 09:43:40;;;;;;;57.03;24.50;;;;;;;0.15;81.43;101097.97;4983305;28;20173;-64
2021/12/23 09:46:08;;;;;;;57.70;23.98;;;;;;;0.22;81.34;101092.03;4977996;28;20113;-63
2021/12/23 09:48:34;;;;;;;59.92;24.17;;;;;;;0.31;80.89;101100.78;4985631;28;20476;-64
2021/12/23 09:51:04;;;;;;;57.58;25.35;;;;;;;0.40;80.53;101100.91;4989349;28;20019;-63
2021/12/23 09:53:32;;;;;;;56.17;23.45;;;;;;;0.50;80.01;101102.75;4989441;28;20444;-63
2021/12/23 09:55:59;;;;;;;56.72;25.27;;;;;;;0.53;79.88;101093.25;4988608;28;20022;-63
2021/12/23 09:58:25;;;;;;;55.20;22.85;;;;;;;0.59;79.63;101076.06;4989818;28;20042;-63
2021/12/23 10:00:53;;;;;;;58.08;23.95;;;;;;;0.60;79.73;101075.19;4999373;28;20038;-63
2021/12/23 10:03:21;;;;;;;52.58;23.60;;;;;;;0.69;79.45;101077.00;5009327;28;20018;-62
2021/12/23 10:05:46;;;;;;;54.08;23.50;;;;;;;0.78;79.08;101077.97;4998441;28;20045;-58
2021/12/23 10:08:13;;;;;;;54.45;24.77;;;;;;;0.73;79.09;101085.72;4989656;28;20042;-62
2021/12/23 10:10:57;;;;;;;59.13;25.35;;;;;;;0.73;78.95;101078.78;4987012;28;20032;-57
2021/12/23 10:38:17;;;;;;;53.70;24.27;;;;;;;1.14;77.90;101053.22;4987667;28;20049;-62
2021/12/23 10:40:48;;;;;;;54.65;24.45;;;;;;;1.18;77.83;101046.34;4987921;28;20033;-64
2021/12/23 10:43:31;;;;;;;57.47;24.65;;;;;;;1.21;77.75;101034.25;4989565;28;20496;-64
2021/12/23 10:46:02;;;;;;;52.63;23.35;;;;;;;1.27;77.34;101028.25;4987532;28;20118;-61
2021/12/23 10:48:31;;;;;;;50.25;23.45;;;;;;;1.32;78.01;101036.09;4988534;28;20034;-58
2021/12/23 10:51:02;;;;;;;54.65;24.05;;;;;;;1.43;77.30;101029.22;4987462;28;20057;-61
2021/12/23 10:59:24;;;;;;;47.58;20.95;;;;;;;1.70;76.48;101034.59;4964272;28;20121;-61
2021/12/23 11:02:16;;;;;;;49.15;22.17;;;;;;;1.74;76.51;101029.44;4989301;28;20177;-61
2021/12/23 11:05:09;;;;;;;46.63;20.35;;;;;;;1.76;76.20;101027.72;4987347;28;20018;-62
2021/12/23 11:08:25;;;;;;;50.05;22.40;;;;;;;1.81;76.63;101040.75;4985092;28;20034;-61
2021/12/23 11:36:21;;;;;;;47.83;21.42;;;;;;;2.24;76.36;100949.06;4925664;29;20034;-63
2021/12/23 11:39:05;;;;;;;48.47;21.63;;;;;;;2.19;76.79;100950.78;4976478;28;20033;-64
2021/12/23 11:41:32;;;;;;;48.80;21.52;;;;;;;2.34;76.14;100943.88;4988351;28;20030;-61
2021/12/23 11:43:59;;;;;;;48.10;21.85;;;;;;;2.37;76.04;100943.88;4987159;28;20018;-62
2021/12/23 11:46:31;;;;;;;44.88;21.60;;;;;;;2.54;75.40;100923.09;4985903;28;20030;-63
2021/12/23 11:48:58;;;;;;;44.25;20.80;;;;;;;2.58;75.47;100918.75;4987085;28;20022;-62
2021/12/23 11:51:45;;;;;;;46.03;23.48;;;;;;;2.45;75.89;100913.56;4985115;28;20034;-61
2021/12/23 11:54:14;;;;;;;45.05;20.92;;;;;;;2.61;75.58;100903.16;4985693;28;20014;-65
2021/12/23 11:57:03;;;;;;;45.10;20.55;;;;;;;2.68;75.59;100894.47;4988976;28;20126;-65
2021/12/23 11:59:30;;;;;;;50.08;20.98;;;;;;;2.79;74.69;100871.06;4987292;28;20121;-66
2021/12/23 12:01:56;;;;;;;43.20;20.23;;;;;;;2.79;74.66;100871.06;4985889;28;20401;-64
2021/12/23 12:04:23;;;;;;;41.88;21.40;;;;;;;2.77;75.16;100859.78;4987178;28;20039;-63
2021/12/23 12:06:50;;;;;;;42.20;21.48;;;;;;;2.76;74.93;100865.84;4984217;28;20850;-63
2021/12/23 12:09:26;;;;;;;43.88;19.65;;;;;;;2.69;75.47;100874.53;4968963;28;20306;-62
2021/12/23 12:12:07;;;;;;;40.58;19.77;;;;;;;2.73;75.30;100866.72;4985217;28;20488;-60
2021/12/23 12:14:40;;;;;;;47.83;22.02;;;;;;;2.83;75.05;100869.31;4981733;28;20026;-68
2021/12/23 12:17:23;;;;;;;44.85;21.35;;;;;;;2.67;75.51;100866.72;4984937;28;20780;-64
2021/12/23 12:19:51;;;;;;;38.90;18.00;;;;;;;2.72;75.59;100870.19;4986233;28;20034;-62